Time;durP1;ratioP1;P1;durP2;ratioP2;P2;SDS_P1;SDS_P2;PMS_P1;PMS_P2;Temp;Humidity;BMP_temperature;BMP_pressure;BME280_temperature;BME280_humidity;BME280_pressure;Samples;Min_cycle;Max_cycle;Signal;HPM_P1;HPM_P2
2021/11/15 00:00:53;;;;;;;23.02;12.15;;;7.30;99.90;;;5.65;100.00;102210.88;2568950;30;137518;-40
2021/11/15 00:03:22;;;;;;;19.38;11.05;;;7.20;99.90;;;5.65;100.00;102214.41;2568080;30;138432;-40
2021/11/15 00:05:50;;;;;;;20.70;12.02;;;7.30;99.90;;;5.66;100.00;102215.28;2567894;30;136974;-40
2021/11/15 00:08:17;;;;;;;20.38;11.65;;;7.30;99.90;;;5.69;100.00;102217.69;2566609;30;139368;-40
2021/11/15 00:10:45;;;;;;;20.40;11.18;;;7.30;99.90;;;5.70;100.00;102208.56;2567795;30;138324;-40
2021/11/15 00:13:13;;;;;;;21.08;12.02;;;7.30;99.90;;;5.72;100.00;102214.69;2567522;30;138907;-40
2021/11/15 00:15:41;;;;;;;22.63;12.30;;;7.30;99.90;;;5.83;100.00;102216.38;2566273;30;137577;-39
2021/11/15 00:18:08;;;;;;;19.35;11.35;;;7.40;99.90;;;5.93;100.00;102214.47;2567467;30;138861;-40
2021/11/15 00:20:37;;;;;;;19.77;11.23;;;7.50;99.90;;;5.94;100.00;102213.47;2566786;30;138418;-40
2021/11/15 00:23:06;;;;;;;20.27;11.13;;;7.50;99.90;;;5.93;100.00;102221.78;2566157;30;138370;-40
2021/11/15 00:25:34;;;;;;;17.00;9.50;;;7.50;99.90;;;5.92;100.00;102217.34;2567041;30;138212;-40
2021/11/15 00:28:02;;;;;;;18.50;11.20;;;7.50;99.90;;;5.93;100.00;102211.78;2568506;30;138413;-40
2021/11/15 00:30:30;;;;;;;20.45;11.05;;;7.50;99.90;;;5.94;100.00;102215.34;2568950;30;137730;-40
2021/11/15 00:32:58;;;;;;;21.90;12.00;;;7.60;99.90;;;6.01;100.00;102214.66;2568923;30;138352;-40
2021/11/15 00:35:25;;;;;;;19.75;12.23;;;7.60;99.90;;;6.02;100.00;102218.19;2567119;30;138492;-40
2021/11/15 00:37:53;;;;;;;18.65;11.13;;;7.60;99.90;;;6.07;100.00;102217.75;2567404;30;138293;-40
2021/11/15 00:40:21;;;;;;;21.27;11.32;;;7.70;99.90;;;6.16;100.00;102216.84;2566630;30;137127;-40
2021/11/15 00:42:48;;;;;;;;;;;7.70;99.90;;;6.19;100.00;102213.84;2567345;30;138624;-40
2021/11/15 00:45:17;;;;;;;18.58;11.23;;;7.70;99.90;;;6.23;100.00;102220.66;2566136;30;138015;-40
2021/11/15 00:47:45;;;;;;;19.42;10.95;;;7.80;99.90;;;6.27;100.00;102218.53;2567879;30;138929;-40
2021/11/15 00:50:18;;;;;;;18.55;10.65;;;7.90;99.90;;;6.31;100.00;102209.09;2568208;30;137502;-40
2021/11/15 00:52:46;;;;;;;18.45;11.07;;;7.90;99.90;;;6.29;100.00;102217.38;2568627;30;138242;-40
2021/11/15 00:55:15;;;;;;;18.70;11.25;;;7.90;99.90;;;6.22;100.00;102213.53;2566514;30;137617;-40
2021/11/15 00:57:43;;;;;;;18.23;11.73;;;7.80;99.90;;;6.25;100.00;102209.69;2568490;30;138376;-40
2021/11/15 01:00:16;;;;;;;18.70;10.57;;;7.80;99.90;;;6.25;100.00;102207.84;2568012;30;136739;-40
2021/11/15 01:02:44;;;;;;;18.83;10.82;;;7.80;99.90;;;6.37;100.00;102203.09;2567075;30;138627;-40
2021/11/15 01:05:13;;;;;;;20.52;11.20;;;8.00;99.90;;;6.42;100.00;102210.75;2565165;30;136681;-40
2021/11/15 01:07:41;;;;;;;18.73;10.70;;;8.00;99.90;;;6.49;100.00;102222.69;2566831;30;138387;-40
2021/11/15 01:10:12;;;;;;;18.63;10.55;;;8.10;99.90;;;6.40;100.00;102210.91;2567998;30;137164;-40
2021/11/15 01:12:40;;;;;;;19.42;10.98;;;8.00;99.90;;;6.42;100.00;102208.91;2567974;30;138290;-40
2021/11/15 01:15:12;;;;;;;19.50;10.65;;;8.00;99.90;;;6.44;100.00;102203.31;2568059;30;137659;-40
2021/11/15 01:17:40;;;;;;;19.73;11.38;;;8.00;99.90;;;6.46;100.00;102195.88;2567944;30;138182;-40
2021/11/15 01:20:14;;;;;;;19.45;11.38;;;8.10;99.90;;;6.46;100.00;102195.88;2568426;30;138345;-40
2021/11/15 01:22:42;;;;;;;19.02;11.43;;;8.10;99.90;;;6.42;100.00;102199.91;2566918;30;138324;-40
2021/11/15 01:25:10;;;;;;;20.35;12.00;;;8.00;99.90;;;6.46;100.00;102204.00;2567708;30;137545;-40
2021/11/15 01:27:39;;;;;;;22.67;12.98;;;8.00;99.90;;;6.44;100.00;102201.47;2566186;30;138325;-40
2021/11/15 01:30:12;;;;;;;22.40;12.63;;;8.00;99.90;;;6.50;100.00;102197.31;2568398;30;136842;-39
2021/11/15 01:32:40;;;;;;;19.88;12.95;;;8.10;99.90;;;6.54;100.00;102193.28;2565149;30;138157;-39
2021/11/15 01:35:09;;;;;;;24.85;14.20;;;8.10;99.90;;;6.54;100.00;102193.28;2567053;30;138383;-40
2021/11/15 01:37:42;;;;;;;22.77;13.55;;;8.20;99.90;;;6.53;100.00;102191.56;2568423;30;138170;-40
2021/11/15 01:40:14;;;;;;;23.00;13.98;;;8.10;99.90;;;6.47;100.00;102197.56;2568484;30;137009;-40
2021/11/15 01:42:42;;;;;;;22.55;13.88;;;8.10;99.90;;;6.48;100.00;102188.44;2568347;30;138393;-40
2021/11/15 01:45:14;;;;;;;22.20;14.20;;;8.10;99.90;;;6.48;100.00;102194.72;2566426;30;138015;-40
2021/11/15 01:47:41;;;;;;;25.55;14.20;;;8.10;99.90;;;6.53;100.00;102188.00;2567810;30;138590;-40
2021/11/15 01:50:17;;;;;;;21.80;13.65;;;8.10;99.90;;;6.56;100.00;102185.84;2568621;30;137061;-39
2021/11/15 01:52:46;;;;;;;22.52;13.85;;;8.20;99.90;;;6.56;100.00;102190.41;2566768;30;138212;-40
2021/11/15 01:55:17;;;;;;;23.13;13.25;;;8.20;99.90;;;6.53;100.00;102182.56;2566787;30;137646;-39
2021/11/15 01:57:46;;;;;;;20.85;12.85;;;8.10;99.90;;;6.46;100.00;102185.91;2564495;30;138804;-40
2021/11/15 02:00:28;;;;;;;21.75;13.55;;;8.10;99.90;;;6.47;100.00;102186.72;2567582;30;137415;-40
2021/11/15 02:02:57;;;;;;;21.15;13.75;;;8.10;99.90;;;6.41;100.00;102185.50;2566238;30;137056;-40
2021/11/15 02:05:26;;;;;;;23.00;14.18;;;8.00;99.90;;;6.39;100.00;102190.22;2567245;30;136922;-40
2021/11/15 02:07:53;;;;;;;20.35;12.70;;;8.00;99.90;;;6.39;100.00;102189.34;2568181;30;138289;-40
2021/11/15 02:10:21;;;;;;;21.50;12.60;;;8.00;99.90;;;6.40;100.00;102189.22;2567265;30;137704;-40
2021/11/15 02:12:49;;;;;;;;;;;8.00;99.90;;;6.40;100.00;102191.94;2565391;30;138276;-40
2021/11/15 02:15:18;;;;;;;21.33;11.55;;;8.00;99.90;;;6.37;100.00;102196.78;2567700;30;136753;-40
2021/11/15 02:17:48;;;;;;;19.65;11.77;;;8.00;99.90;;;6.34;100.00;102189.81;2567662;30;137154;-40
2021/11/15 02:20:27;;;;;;;22.83;12.50;;;8.00;99.90;;;6.37;100.00;102184.09;2568065;30;137864;-39
2021/11/15 02:22:55;;;;;;;19.58;10.38;;;8.00;99.90;;;6.47;100.00;102190.31;2566349;30;138259;-40
2021/11/15 02:25:26;;;;;;;18.20;10.25;;;8.00;99.90;;;6.43;100.00;102182.63;2566892;30;136798;-40
2021/11/15 02:27:54;;;;;;;17.48;9.90;;;8.00;99.90;;;6.44;100.00;102181.63;2567958;30;138437;-40
2021/11/15 02:30:26;;;;;;;20.40;11.15;;;8.00;99.90;;;6.42;100.00;102179.06;2568758;30;137446;-40
2021/11/15 02:32:54;;;;;;;17.50;10.25;;;8.00;99.90;;;6.43;100.00;102179.91;2567183;30;137811;-40
2021/11/15 02:35:24;;;;;;;19.73;10.85;;;8.00;99.90;;;6.41;100.00;102187.34;2565184;30;137242;-40
2021/11/15 02:37:52;;;;;;;17.27;10.13;;;8.00;99.90;;;6.37;100.00;102186.81;2567741;30;138295;-40
2021/11/15 02:40:25;;;;;;;17.48;10.23;;;8.00;99.90;;;6.42;100.00;102184.50;2566737;30;137491;-39
2021/11/15 02:42:55;;;;;;;22.50;11.23;;;8.00;99.90;;;6.39;100.00;102183.94;2566668;30;139233;-40
2021/11/15 02:45:25;;;;;;;19.30;11.02;;;8.00;99.90;;;6.31;100.00;102182.84;2566409;30;138927;-40
2021/11/15 02:47:54;;;;;;;19.35;11.55;;;7.90;99.90;;;6.27;100.00;102181.44;2566830;30;139009;-40
2021/11/15 02:50:27;;;;;;;18.52;11.30;;;7.90;99.90;;;6.28;100.00;102179.56;2567006;30;137772;-40
2021/11/15 02:52:59;;;;;;;18.25;10.77;;;7.90;99.90;;;6.41;100.00;102177.38;2566280;30;138970;-39
2021/11/15 02:55:28;;;;;;;19.45;11.45;;;8.00;99.90;;;6.32;100.00;102165.56;2566629;30;137827;-40
2021/11/15 02:57:59;;;;;;;21.95;12.50;;;8.00;99.90;;;6.35;100.00;102171.69;2567841;30;137371;-40
2021/11/15 03:00:55;;;;;;;19.58;11.98;;;8.00;99.90;;;6.46;100.00;102174.19;2568849;30;138316;-40
2021/11/15 03:03:26;;;;;;;19.67;11.60;;;8.00;99.90;;;6.50;100.00;102175.63;2567882;30;138135;-40
2021/11/15 03:05:55;;;;;;;18.95;10.65;;;8.10;99.90;;;6.43;100.00;102171.78;2566988;30;138693;-40
2021/11/15 03:08:25;;;;;;;19.75;11.70;;;8.10;99.90;;;6.38;100.00;102174.97;2566944;30;137466;-40
2021/11/15 03:10:58;;;;;;;19.92;11.48;;;8.00;99.90;;;6.43;100.00;102177.19;2568232;30;137737;-40
2021/11/15 03:13:31;;;;;;;18.67;10.88;;;8.00;99.90;;;6.45;100.00;102175.19;2566884;30;136936;-40
2021/11/15 03:16:01;;;;;;;20.25;11.60;;;8.10;99.90;;;6.40;100.00;102174.81;2569351;30;136896;-40
2021/11/15 03:18:34;;;;;;;21.02;11.25;;;8.00;99.90;;;6.48;100.00;102167.63;2568418;30;138073;-39
2021/11/15 03:24:20;;;;;;;21.35;11.13;;;8.10;99.90;;;6.50;99.97;102166.59;2567060;30;137647;-37
2021/11/15 03:26:47;;;;;;;22.95;11.73;;;8.10;99.90;;;6.46;99.66;102166.06;2567322;30;137535;-38
2021/11/15 03:29:15;;;;;;;20.95;12.02;;;8.10;99.90;;;6.40;100.00;102158.53;2571047;30;137677;-38
2021/11/15 03:31:44;;;;;;;21.23;11.75;;;8.00;99.90;;;6.37;100.00;102165.13;2569095;30;139435;-38
2021/11/15 03:34:14;;;;;;;20.02;12.02;;;8.00;99.90;;;6.33;100.00;102158.28;2569740;30;138375;-38
2021/11/15 03:36:46;;;;;;;20.70;11.63;;;8.00;99.90;;;6.31;100.00;102154.88;2572002;30;137806;-38
2021/11/15 03:39:16;;;;;;;22.63;11.95;;;7.90;99.90;;;6.31;100.00;102163.00;2571689;30;137707;-38
2021/11/15 03:41:45;;;;;;;20.80;12.00;;;7.90;99.90;;;6.35;99.97;102169.81;2569643;30;138194;-38
2021/11/15 03:44:13;;;;;;;20.60;11.52;;;8.00;99.90;;;6.34;100.00;102168.13;2570650;30;138430;-38
2021/11/15 03:46:41;;;;;;;20.20;11.52;;;8.00;99.90;;;6.30;100.00;102169.44;2569455;30;137248;-38
2021/11/15 03:49:14;;;;;;;23.55;12.38;;;7.90;99.90;;;6.31;100.00;102171.13;2567690;30;137775;-38
2021/11/15 03:51:45;;;;;;;20.23;11.38;;;7.90;99.90;;;6.32;100.00;102179.13;2570015;30;139357;-38
2021/11/15 03:54:12;;;;;;;22.02;11.98;;;7.90;99.90;;;6.36;99.64;102178.81;2571020;30;137120;-39
2021/11/15 03:56:40;;;;;;;22.73;12.05;;;8.00;99.90;;;6.29;100.00;102167.72;2569521;30;138553;-38
2021/11/15 03:59:11;;;;;;;19.77;11.45;;;8.00;99.90;;;6.29;99.63;102184.84;2568888;30;137745;-38
2021/11/15 04:01:39;;;;;;;22.80;12.30;;;7.90;99.90;;;6.27;100.00;102181.44;2570018;30;137027;-38
2021/11/15 04:04:09;;;;;;;21.52;12.40;;;7.90;99.90;;;6.31;100.00;102176.56;2569303;30;136931;-38
2021/11/15 04:06:48;;;;;;;21.73;12.20;;;8.00;99.90;;;6.40;99.89;102181.09;2566872;30;138703;-38
2021/11/15 04:09:16;;;;;;;21.65;11.90;;;7.90;99.90;;;6.37;99.90;102191.38;2570174;30;136686;-38
2021/11/15 04:11:44;;;;;;;24.63;12.38;;;8.00;99.90;;;6.30;99.62;102186.56;2571008;30;138333;-38
2021/11/15 04:14:15;;;;;;;20.92;11.63;;;7.90;99.90;;;6.34;99.83;102187.09;2568626;30;137662;-38
2021/11/15 04:16:45;;;;;;;22.75;11.38;;;8.00;99.90;;;6.29;99.53;102186.69;2570560;30;138310;-38
2021/11/15 04:19:17;;;;;;;22.73;12.07;;;7.90;99.90;;;6.33;100.00;102185.38;2571370;30;137868;-38
2021/11/15 04:21:45;;;;;;;19.20;10.90;;;7.90;99.90;;;6.26;100.00;102185.16;2565742;30;139037;-38
2021/11/15 04:24:13;;;;;;;22.42;11.63;;;7.90;99.90;;;6.28;100.00;102179.56;2570348;30;137652;-38
2021/11/15 04:26:40;;;;;;;22.40;12.80;;;7.90;99.90;;;6.25;99.90;102169.03;2570258;30;138559;-38
2021/11/15 04:29:08;;;;;;;23.13;12.43;;;7.90;99.90;;;6.27;100.00;102176.03;2569484;30;137706;-38
2021/11/15 04:31:36;;;;;;;21.70;11.52;;;7.90;99.90;;;6.19;100.00;102174.06;2568704;30;139276;-39
2021/11/15 04:34:03;;;;;;;22.50;11.82;;;7.80;99.90;;;6.17;100.00;102167.94;2570785;30;137044;-38
2021/11/15 04:36:31;;;;;;;21.92;11.18;;;7.80;99.90;;;6.20;100.00;102174.91;2568954;30;137489;-38
2021/11/15 04:38:58;;;;;;;24.13;12.55;;;7.80;99.90;;;6.21;100.00;102178.47;2569325;30;138098;-38
2021/11/15 04:41:26;;;;;;;23.65;12.32;;;7.80;99.90;;;6.22;100.00;102174.75;2570284;30;138147;-38
2021/11/15 04:43:54;;;;;;;22.48;11.95;;;7.80;99.90;;;6.23;100.00;102173.75;2568849;30;138452;-38
2021/11/15 04:46:21;;;;;;;24.02;12.20;;;7.80;99.90;;;6.27;100.00;102173.31;2570027;30;138458;-38
2021/11/15 04:48:50;;;;;;;19.50;11.15;;;7.90;99.90;;;6.25;100.00;102171.75;2571461;30;137379;-39
2021/11/15 04:51:18;;;;;;;25.20;12.55;;;7.80;99.90;;;6.25;100.00;102167.19;2569487;30;138352;-38
2021/11/15 04:53:46;;;;;;;21.98;11.68;;;7.90;99.90;;;6.25;100.00;102169.03;2568835;30;137534;-38
2021/11/15 04:56:13;;;;;;;21.88;11.93;;;7.90;99.90;;;6.18;100.00;102164.22;2568506;30;138388;-38
2021/11/15 04:58:41;;;;;;;20.48;11.38;;;7.80;99.90;;;6.16;100.00;102166.22;2567080;30;138987;-38
2021/11/15 05:01:09;;;;;;;;;;;7.80;99.90;;;6.16;100.00;102174.38;2568651;30;137270;-38
2021/11/15 05:03:37;;;;;;;22.02;11.50;;;7.80;99.90;;;6.19;100.00;102171.34;2569122;30;137017;-38
2021/11/15 05:06:05;;;;;;;23.33;11.90;;;7.80;99.90;;;6.18;100.00;102163.34;2569849;30;137564;-38
2021/11/15 05:08:33;;;;;;;21.33;11.55;;;7.80;99.90;;;6.24;100.00;102168.19;2569084;30;137614;-38
2021/11/15 05:11:01;;;;;;;22.33;12.48;;;7.80;99.90;;;6.23;100.00;102162.91;2570612;30;138332;-38
2021/11/15 05:13:29;;;;;;;;;;;7.80;99.90;;;6.29;99.71;102159.59;2570882;30;138614;-38
2021/11/15 05:15:56;;;;;;;22.83;11.45;;;7.90;99.90;;;6.34;99.34;102154.56;2569005;30;138370;-38
2021/11/15 05:18:24;;;;;;;23.88;12.50;;;7.90;99.90;;;6.27;98.98;102148.91;2569667;30;136973;-38
2021/11/15 05:20:52;;;;;;;21.83;12.27;;;7.90;99.90;;;6.33;99.47;102161.00;2570061;30;138574;-38
2021/11/15 05:23:19;;;;;;;23.75;12.70;;;8.00;99.90;;;6.29;98.40;102156.88;2568997;30;137521;-38
2021/11/15 05:25:47;;;;;;;22.13;11.48;;;7.90;99.90;;;6.26;99.15;102149.06;2569037;30;137343;-38
2021/11/15 05:28:15;;;;;;;20.13;11.30;;;7.90;99.90;;;6.27;99.47;102157.06;2570050;30;137059;-38
2021/11/15 05:30:42;;;;;;;21.40;11.43;;;7.90;99.90;;;6.23;99.43;102155.63;2569781;30;138622;-38
2021/11/15 05:33:10;;;;;;;21.17;11.27;;;7.90;99.90;;;6.26;99.17;102157.19;2568554;30;137600;-38
2021/11/15 05:35:38;;;;;;;20.48;11.23;;;7.90;99.90;;;6.20;100.00;102153.22;2566539;30;138592;-38
2021/11/15 05:38:07;;;;;;;20.95;11.65;;;7.80;99.90;;;6.23;99.50;102158.31;2567111;30;138738;-38
2021/11/15 05:40:35;;;;;;;23.52;11.50;;;7.80;99.90;;;6.21;99.14;102162.22;2570716;30;138214;-38
2021/11/15 05:43:03;;;;;;;;;;;7.80;99.90;;;6.29;99.41;102163.16;2570458;30;136808;-38
2021/11/15 05:45:30;;;;;;;20.80;10.25;;;7.90;99.90;;;6.29;99.39;102162.31;2568421;30;137415;-38
2021/11/15 05:47:58;;;;;;;22.63;11.68;;;7.90;99.90;;;6.33;98.15;102161.84;2569332;30;136568;-38
2021/11/15 05:50:29;;;;;;;26.08;12.45;;;8.00;99.90;;;6.28;97.80;102161.47;2569049;30;138499;-38
2021/11/15 05:52:58;;;;;;;21.48;10.82;;;7.90;99.90;;;6.19;97.96;102163.22;2570260;30;136925;-38
2021/11/15 05:55:27;;;;;;;23.77;11.18;;;7.80;99.90;;;6.17;98.03;102159.81;2568988;30;138450;-38
2021/11/15 05:57:55;;;;;;;23.00;11.45;;;7.80;99.90;;;6.14;98.76;102159.25;2569010;30;137594;-38
2021/11/15 06:00:26;;;;;;;21.42;10.45;;;7.80;99.90;;;6.15;98.41;102164.53;2567976;30;138359;-38
2021/11/15 06:02:55;;;;;;;22.98;11.13;;;7.80;99.90;;;6.16;98.29;102162.66;2568242;30;138272;-38
2021/11/15 06:05:24;;;;;;;20.95;10.18;;;7.80;99.90;;;6.14;98.04;102164.66;2569699;30;138082;-38
2021/11/15 06:07:53;;;;;;;22.77;10.65;;;7.80;99.90;;;6.17;98.15;102167.06;2569698;30;138240;-38
2021/11/15 06:10:21;;;;;;;26.90;11.98;;;7.80;99.90;;;6.18;98.37;102164.22;2570046;30;139135;-38
2021/11/15 06:12:51;;;;;;;23.25;11.23;;;7.80;99.90;;;6.15;98.29;102160.94;2570204;30;137076;-38
2021/11/15 06:15:21;;;;;;;25.17;11.50;;;7.80;99.90;;;6.13;98.38;102162.97;2566891;30;138313;-38
2021/11/15 06:17:51;;;;;;;22.20;11.30;;;7.70;99.90;;;6.19;97.55;102168.63;2567904;30;138376;-38
2021/11/15 06:20:20;;;;;;;24.58;10.70;;;7.80;99.90;;;6.19;97.31;102176.78;2567004;30;139449;-38
2021/11/15 06:22:48;;;;;;;21.60;9.93;;;7.80;99.90;;;6.22;97.34;102177.47;2570178;30;136808;-38
2021/11/15 06:25:16;;;;;;;;;;;7.80;99.90;;;6.23;96.30;102173.75;2568678;30;137289;-38
2021/11/15 06:27:45;;;;;;;22.45;11.07;;;7.80;99.90;;;6.16;96.64;102163.53;2567019;30;137314;-38
2021/11/15 06:30:18;;;;;;;23.77;10.48;;;7.80;99.90;;;6.14;97.26;102176.38;2567716;30;137444;-38
2021/11/15 06:32:47;;;;;;;22.13;11.15;;;7.80;99.90;;;6.07;97.36;102177.94;2567082;30;136979;-38
2021/11/15 06:35:15;;;;;;;22.20;10.73;;;7.70;99.90;;;6.08;97.00;102176.94;2569574;30;138312;-38
2021/11/15 06:37:43;;;;;;;23.33;11.70;;;7.70;99.90;;;6.06;97.33;102176.25;2569528;30;137749;-38
2021/11/15 06:40:14;;;;;;;23.00;10.90;;;7.70;99.90;;;6.04;97.43;102186.38;2568262;30;139548;-38
2021/11/15 06:42:42;;;;;;;24.60;11.80;;;7.70;99.90;;;6.04;97.62;102178.25;2569879;30;138261;-38
2021/11/15 06:45:11;;;;;;;22.58;10.85;;;7.70;99.90;;;6.07;96.70;102175.25;2567547;30;138265;-38
2021/11/15 06:47:41;;;;;;;22.77;11.05;;;7.70;99.90;;;6.04;96.67;102173.72;2571002;30;137767;-38
2021/11/15 06:50:13;;;;;;;23.95;11.73;;;7.70;99.90;;;6.00;96.29;102179.53;2570205;30;138458;-38
2021/11/15 06:52:41;;;;;;;22.10;10.00;;;7.70;99.90;;;6.02;96.60;102186.56;2570454;30;136773;-38
2021/11/15 06:55:11;;;;;;;25.15;11.43;;;7.70;99.90;;;6.04;97.06;102186.38;2569649;30;138475;-38
2021/11/15 06:57:40;;;;;;;24.23;11.18;;;7.70;99.90;;;5.99;96.69;102194.06;2569615;30;137848;-38
2021/11/15 07:00:21;;;;;;;22.92;10.95;;;7.60;99.90;;;6.00;97.71;102191.22;2569682;30;138386;-38
2021/11/15 07:02:51;;;;;;;24.27;11.82;;;7.60;99.90;;;5.97;97.75;102193.38;2569025;30;138282;-38
2021/11/15 07:05:21;;;;;;;27.83;10.77;;;7.60;99.90;;;6.01;97.25;102197.53;2568510;30;138998;-38
2021/11/15 07:07:51;;;;;;;23.27;10.93;;;7.60;99.90;;;5.93;97.48;102187.38;2566671;30;137935;-38
2021/11/15 07:10:21;;;;;;;27.40;12.13;;;7.60;99.90;;;5.96;97.51;102197.09;2569190;30;138233;-38
2021/11/15 07:12:51;;;;;;;23.40;10.63;;;7.60;99.90;;;5.96;96.99;102184.38;2571857;30;137777;-38
2021/11/15 07:15:20;;;;;;;21.65;11.00;;;7.60;99.90;;;6.01;97.25;102192.09;2569994;30;138340;-38
2021/11/15 07:17:48;;;;;;;25.70;12.02;;;7.60;99.90;;;5.99;97.22;102188.66;2570029;30;138679;-38
2021/11/15 07:20:16;;;;;;;24.13;12.02;;;7.60;99.90;;;5.95;97.64;102198.09;2571583;30;138401;-38
2021/11/15 07:22:48;;;;;;;23.73;12.05;;;7.60;99.90;;;5.90;97.72;102193.09;2569506;30;137888;-38
2021/11/15 07:25:21;;;;;;;24.77;12.57;;;7.60;99.90;;;5.94;97.78;102207.22;2568465;30;138149;-38
2021/11/15 07:27:53;;;;;;;25.00;11.85;;;7.60;99.90;;;5.89;98.14;102202.22;2569517;30;138453;-38
2021/11/15 07:30:21;;;;;;;25.38;13.10;;;7.50;99.90;;;5.94;97.97;102204.50;2569985;30;136637;-38
2021/11/15 07:32:50;;;;;;;24.83;12.65;;;7.50;99.90;;;5.92;98.41;102203.81;2572311;30;138061;-38
2021/11/15 07:35:19;;;;;;;23.58;12.23;;;7.60;99.90;;;5.94;98.54;102207.22;2570133;30;138451;-38
2021/11/15 07:37:47;;;;;;;25.98;12.23;;;7.60;99.90;;;5.97;98.57;102207.78;2571963;30;137652;-38
2021/11/15 07:40:18;;;;;;;26.27;12.05;;;7.60;99.90;;;5.97;98.40;102206.91;2570971;30;138269;-38
2021/11/15 07:42:48;;;;;;;22.25;11.52;;;7.60;99.90;;;5.98;99.36;102211.34;2571050;30;138215;-38
2021/11/15 07:45:17;;;;;;;26.85;13.30;;;7.60;99.90;;;6.02;97.59;102210.06;2569219;30;138561;-38
2021/11/15 07:47:46;;;;;;;25.45;12.15;;;7.60;99.90;;;5.96;98.22;102213.34;2571513;30;137020;-38
2021/11/15 07:50:15;;;;;;;22.88;12.25;;;7.60;99.90;;;5.94;98.97;102218.06;2569402;30;138690;-38
2021/11/15 07:52:42;;;;;;;23.77;12.15;;;7.60;99.90;;;5.85;99.12;102198.13;2569314;30;137665;-38
2021/11/15 07:55:14;;;;;;;23.23;12.13;;;7.50;99.90;;;5.89;99.09;102205.81;2566401;30;137306;-38
2021/11/15 07:57:44;;;;;;;24.20;12.77;;;7.50;99.90;;;5.89;99.28;102211.22;2570281;30;137401;-38
2021/11/15 08:00:17;;;;;;;23.48;11.90;;;7.50;99.90;;;5.92;99.43;102215.47;2568525;30;139033;-38
2021/11/15 08:02:45;;;;;;;23.52;11.60;;;7.50;99.90;;;5.92;99.12;102214.66;2567215;30;137702;-38
2021/11/15 08:05:17;;;;;;;25.58;12.27;;;7.50;99.90;;;5.90;99.43;102212.94;2568428;30;138147;-38
2021/11/15 08:07:47;;;;;;;28.88;14.18;;;7.50;99.90;;;5.98;98.75;102217.63;2570342;30;138004;-39
2021/11/15 08:10:18;;;;;;;27.60;13.57;;;7.60;99.90;;;6.07;97.66;102218.59;2569837;30;136572;-38
2021/11/15 08:12:51;;;;;;;27.30;13.70;;;7.60;99.90;;;6.10;97.27;102221.03;2568160;30;138698;-38
2021/11/15 08:15:22;;;;;;;23.55;12.32;;;7.70;99.90;;;6.06;97.92;102224.19;2568686;30;137451;-38
2021/11/15 08:17:54;;;;;;;27.35;13.27;;;7.70;99.90;;;6.06;98.12;102221.47;2568828;30;138581;-39
2021/11/15 08:20:36;;;;;;;25.98;13.30;;;7.70;99.90;;;5.99;97.95;102227.47;2569165;30;136899;-38
2021/11/15 08:23:14;;;;;;;26.30;12.15;;;7.60;99.90;;;5.99;98.28;102219.31;2570756;30;137423;-38
2021/11/15 08:26:27;;;;;;;26.27;12.80;;;7.60;99.90;;;6.09;98.59;102224.72;2570004;30;138245;-39
2021/11/15 08:29:16;;;;;;;24.50;12.35;;;7.70;99.90;;;6.06;97.99;102219.59;2569340;30;138081;-38
2021/11/15 08:31:46;;;;;;;25.52;12.57;;;7.70;99.90;;;6.03;97.80;102219.91;2571244;30;137788;-37
2021/11/15 08:34:15;;;;;;;27.75;12.90;;;7.70;99.90;;;6.10;96.96;102223.75;2567031;30;137315;-37
2021/11/15 08:36:44;;;;;;;27.15;12.70;;;7.70;99.90;;;6.05;97.69;102220.59;2570808;30;139361;-38
2021/11/15 08:39:19;;;;;;;23.90;12.13;;;7.70;99.90;;;6.06;97.12;102225.03;2570334;30;138342;-38
2021/11/15 08:41:55;;;;;;;21.83;11.82;;;7.70;99.90;;;6.00;97.54;102220.16;2571594;30;138378;-41
2021/11/15 08:44:24;;;;;;;27.05;12.35;;;7.70;99.90;;;5.94;96.99;102223.47;2568157;30;137817;-40
2021/11/15 08:46:53;;;;;;;25.65;12.43;;;7.60;99.90;;;5.96;97.23;102224.19;2568844;30;138555;-41
2021/11/15 08:49:26;;;;;;;23.45;11.70;;;7.60;99.90;;;5.95;97.07;102215.19;2569011;30;137816;-38
2021/11/15 08:51:55;;;;;;;24.83;11.23;;;7.60;99.90;;;5.92;96.93;102209.22;2569173;30;139269;-38
2021/11/15 08:54:24;;;;;;;24.65;11.23;;;7.60;99.90;;;5.94;97.55;102212.63;2569782;30;137000;-38
2021/11/15 08:57:00;;;;;;;26.85;11.95;;;7.60;99.90;;;5.99;97.69;102210.34;2569915;30;137130;-38
2021/11/15 08:59:39;;;;;;;24.73;11.13;;;7.60;99.90;;;5.95;97.02;102208.94;2569722;30;138248;-38
2021/11/15 09:02:07;;;;;;;25.55;11.85;;;7.60;99.90;;;5.88;97.27;102206.81;2568906;30;137934;-38
2021/11/15 09:04:37;;;;;;;24.58;11.30;;;7.60;99.90;;;5.90;97.82;102210.22;2569266;30;136829;-38
2021/11/15 09:07:05;;;;;;;22.17;10.68;;;7.50;99.90;;;5.88;97.75;102214.94;2570109;30;137440;-38
2021/11/15 09:09:33;;;;;;;21.92;10.20;;;7.50;99.90;;;5.81;97.57;102211.09;2570391;30;137839;-38
2021/11/15 09:12:05;;;;;;;23.80;10.82;;;7.50;99.90;;;5.90;97.55;102220.19;2569434;30;139161;-38
2021/11/15 09:14:33;;;;;;;23.75;11.13;;;7.50;99.90;;;5.94;97.25;102229.72;2568809;30;137397;-38
2021/11/15 09:17:02;;;;;;;19.30;9.35;;;7.50;99.90;;;5.88;96.77;102231.19;2569432;30;138992;-38
2021/11/15 09:19:29;;;;;;;21.25;9.80;;;7.50;99.90;;;5.94;97.10;102234.31;2570211;30;137697;-38
2021/11/15 09:21:58;;;;;;;19.80;9.43;;;7.60;99.90;;;5.93;96.11;102228.03;2569132;30;138635;-38
2021/11/15 09:24:25;;;;;;;22.45;9.95;;;7.60;99.90;;;5.94;97.03;102234.31;2576346;30;138116;-40
2021/11/15 09:26:54;;;;;;;19.83;8.77;;;7.60;99.90;;;5.96;96.60;102230.44;2569064;30;138277;-40
2021/11/15 09:29:22;;;;;;;;;;;7.60;99.90;;;5.99;96.19;102224.75;2569085;30;137043;-39
2021/11/15 09:31:50;;;;;;;22.77;11.02;;;7.60;99.90;;;5.93;96.59;102217.19;2568398;30;137972;-40
2021/11/15 09:34:18;;;;;;;24.80;11.85;;;7.60;99.90;;;5.92;96.63;102220.91;2565675;30;138487;-39
2021/11/15 09:36:46;;;;;;;23.63;11.68;;;7.60;99.90;;;5.98;96.91;102223.03;2568017;30;137302;-40
2021/11/15 09:39:14;;;;;;;24.80;11.18;;;7.60;99.90;;;5.99;96.85;102216.63;2568455;30;136822;-39
2021/11/15 09:41:45;;;;;;;21.13;10.07;;;7.60;99.90;;;6.08;96.91;102224.88;2567587;30;138307;-40
2021/11/15 09:44:15;;;;;;;24.98;10.68;;;7.70;99.90;;;6.04;95.76;102218.91;2568581;30;136961;-40
2021/11/15 09:46:45;;;;;;;25.40;11.80;;;7.70;99.90;;;5.99;95.42;102224.75;2568221;30;138427;-40
2021/11/15 09:49:13;;;;;;;22.80;11.35;;;7.60;99.90;;;6.02;96.52;102226.31;2568609;30;136868;-39
2021/11/15 09:51:42;;;;;;;;;;;7.60;99.90;;;5.97;96.65;102223.19;2568795;30;137352;-39
2021/11/15 09:54:12;;;;;;;23.70;10.65;;;7.60;99.90;;;6.05;96.63;102231.44;2567232;30;137161;-39
2021/11/15 09:56:41;;;;;;;27.13;11.98;;;7.60;99.90;;;6.00;96.22;102233.72;2568222;30;137879;-39
2021/11/15 09:59:13;;;;;;;24.65;10.70;;;7.60;99.90;;;6.01;96.25;102233.63;2568419;30;136735;-40
2021/11/15 10:01:48;;;;;;;24.90;11.27;;;7.60;99.90;;;5.98;97.06;102220.34;2565932;30;138587;-40
2021/11/15 10:04:18;;;;;;;23.20;10.55;;;7.60;99.90;;;6.01;97.91;102220.06;2565128;30;137016;-40
2021/11/15 10:06:48;;;;;;;25.00;11.68;;;7.60;99.90;;;6.02;97.11;102215.47;2568460;30;138522;-39
2021/11/15 10:09:37;;;;;;;24.58;11.98;;;7.60;99.90;;;6.01;97.50;102216.50;2567912;30;138377;-40
2021/11/15 10:12:15;;;;;;;24.17;11.00;;;7.60;99.90;;;6.09;97.83;102211.16;2567380;30;138127;-40
2021/11/15 10:15:02;;;;;;;21.37;10.40;;;7.70;99.90;;;6.00;97.72;102206.63;2567762;30;138602;-41
2021/11/15 10:17:45;;;;;;;24.65;10.98;;;7.70;99.90;;;6.06;98.20;102214.19;2567929;30;138556;-40
2021/11/15 10:20:14;;;;;;;23.92;11.15;;;7.60;99.90;;;6.08;97.46;102222.19;2568220;30;138652;-40